Valle Puerto Real, Puerto Rico
Current Conditions -  °F | °C
As of 12:53 PM on Tuesday 27 Jan 2015 (Local Time) from TJNR Reporting Station
Few Clouds Few Clouds  
Wind Chill: 84°   Ceiling: Unl
Heat Index: 89°   Visibility: 10mi
Dew Point: 71°   Wind: 15mph
Humidity: 65%   Direction: 170°S
Pressure: 30.03"   Gusts: NA
Location:  18.3201°N, 65.6502°W
Report Text: TJNR 271653Z AUTO 17013KT 10SM FEW027 29/22 A3003 RMK AO2 RAB06E15 SLP168 P0000 T02890217 $
Loading
Personal Weather Stations






























Interactive Weather Map New forecast layout! Learn more

10-Day Weather Forecast

Advertisements
Track Severe Weather on mobile